Time;durP1;ratioP1;P1;durP2;ratioP2;P2;SDS_P1;SDS_P2;PMS_P1;PMS_P2;Temp;Humidity;BMP_temperature;BMP_pressure;BME280_temperature;BME280_humidity;BME280_pressure;Samples;Min_cycle;Max_cycle;Signal;HPM_P1;HPM_P2
2022/07/30 00:01:15;;;;;;;5.28;3.72;;;19.50;78.20;;;;;;5066272;28;20093;-62
2022/07/30 00:03:41;;;;;;;6.38;3.33;;;19.40;78.40;;;;;;5066414;28;20073;-62
2022/07/30 00:06:06;;;;;;;7.80;3.40;;;19.40;78.60;;;;;;5066804;28;20032;-62
2022/07/30 00:08:32;;;;;;;3.53;2.95;;;19.40;78.90;;;;;;5066725;28;20103;-62
2022/07/30 00:10:58;;;;;;;5.82;3.00;;;19.30;79.00;;;;;;5066191;28;20115;-62
2022/07/30 00:13:24;;;;;;;4.25;2.90;;;19.30;79.30;;;;;;5066455;28;20064;-62
2022/07/30 00:15:50;;;;;;;4.45;2.97;;;19.20;79.50;;;;;;5069350;28;20025;-62
2022/07/30 00:18:15;;;;;;;4.38;2.60;;;19.20;79.80;;;;;;5068825;28;20067;-62
2022/07/30 00:20:41;;;;;;;3.13;2.72;;;19.20;80.00;;;;;;5069697;28;20028;-62
2022/07/30 00:23:07;;;;;;;4.57;3.05;;;19.20;80.30;;;;;;5068819;28;20103;-62
2022/07/30 00:25:32;;;;;;;3.63;2.80;;;19.10;80.60;;;;;;5071131;28;20480;-62
2022/07/30 00:27:58;;;;;;;4.60;2.47;;;19.10;81.00;;;;;;5069611;28;20029;-62
2022/07/30 00:30:24;;;;;;;5.00;2.38;;;19.00;81.30;;;;;;5070263;28;20020;-62
2022/07/30 00:32:50;;;;;;;4.15;2.97;;;19.00;81.60;;;;;;5070211;28;20406;-62
2022/07/30 00:35:15;;;;;;;3.80;3.03;;;19.00;82.00;;;;;;5070067;28;20090;-62
2022/07/30 00:37:41;;;;;;;3.95;2.78;;;18.90;82.40;;;;;;5067494;28;20082;-62
2022/07/30 00:40:08;;;;;;;3.70;2.65;;;18.80;82.60;;;;;;5069431;28;20028;-62
2022/07/30 00:42:42;;;;;;;3.28;2.33;;;18.70;82.90;;;;;;5068673;28;20044;-62
2022/07/30 00:45:09;;;;;;;3.50;2.90;;;18.60;83.40;;;;;;5070712;28;20464;-62
2022/07/30 00:47:35;;;;;;;4.18;2.50;;;18.50;83.90;;;;;;5083497;28;20032;-62
2022/07/30 00:50:03;;;;;;;3.40;2.60;;;18.50;84.30;;;;;;5068442;28;20024;-62
2022/07/30 00:52:30;;;;;;;4.25;2.85;;;18.40;84.50;;;;;;5070643;28;20090;-61
2022/07/30 00:54:55;;;;;;;7.00;2.63;;;18.40;84.80;;;;;;5068517;28;20028;-62
2022/07/30 00:57:21;;;;;;;5.03;2.60;;;18.40;85.20;;;;;;5083911;28;20028;-62
2022/07/30 00:59:47;;;;;;;2.85;2.05;;;18.40;85.30;;;;;;5068946;28;20052;-62
2022/07/30 01:02:12;;;;;;;2.10;1.80;;;18.40;85.40;;;;;;5070468;28;20029;-62
2022/07/30 01:04:38;;;;;;;3.58;2.10;;;18.30;85.50;;;;;;5068120;28;20024;-62
2022/07/30 01:07:03;;;;;;;4.50;2.17;;;18.30;85.70;;;;;;5084565;28;20040;-62
2022/07/30 01:09:29;;;;;;;2.78;2.08;;;18.20;85.80;;;;;;5068022;28;20062;-62
2022/07/30 01:11:55;;;;;;;3.10;2.60;;;18.10;85.90;;;;;;5070278;28;20039;-62
2022/07/30 01:14:21;;;;;;;3.75;2.53;;;18.10;86.10;;;;;;5070083;28;20017;-62
2022/07/30 01:16:46;;;;;;;5.88;2.67;;;18.10;86.30;;;;;;5069321;28;20495;-62
2022/07/30 01:22:16;;;;;;;4.25;2.90;;;18.00;87.00;;;;;;5068580;28;20105;-62
2022/07/30 01:25:26;;;;;;;6.15;2.70;;;17.90;87.30;;;;;;5068564;28;20021;-62
2022/07/30 01:27:56;;;;;;;3.85;2.50;;;17.90;87.50;;;;;;5064783;28;20059;-62
2022/07/30 01:30:25;;;;;;;3.90;2.70;;;17.80;87.90;;;;;;5068835;28;20075;-61
2022/07/30 01:32:52;;;;;;;;;;;17.80;88.10;;;;;;5070401;28;20395;-61
2022/07/30 01:35:19;;;;;;;4.43;2.33;;;17.70;88.00;;;;;;5068991;28;19916;-62
2022/07/30 01:37:46;;;;;;;5.13;2.65;;;17.70;88.70;;;;;;5066817;28;20058;-62
2022/07/30 01:40:13;;;;;;;3.30;2.22;;;17.70;89.00;;;;;;5069117;28;20024;-61
2022/07/30 01:42:40;;;;;;;4.57;2.63;;;17.60;89.30;;;;;;5067062;28;20534;-61
2022/07/30 01:45:07;;;;;;;4.45;2.75;;;17.60;89.70;;;;;;5052689;28;20497;-62
2022/07/30 01:47:35;;;;;;;4.53;2.80;;;17.60;90.00;;;;;;5070408;28;20478;-62
2022/07/30 01:50:05;;;;;;;4.50;2.40;;;17.60;90.10;;;;;;5066993;28;20101;-62
2022/07/30 01:52:32;;;;;;;2.97;2.22;;;17.60;90.20;;;;;;5071712;28;20081;-61
2022/07/30 01:55:00;;;;;;;2.63;1.85;;;17.50;90.30;;;;;;5069557;28;20017;-61
2022/07/30 01:57:27;;;;;;;3.65;2.45;;;17.50;90.30;;;;;;5066396;28;20028;-62
2022/07/30 01:59:57;;;;;;;3.03;2.38;;;17.40;90.40;;;;;;5069379;28;20075;-62
2022/07/30 02:02:23;;;;;;;2.53;2.13;;;17.30;90.70;;;;;;5069348;28;20016;-62
2022/07/30 02:04:49;;;;;;;3.10;2.13;;;17.30;90.80;;;;;;5070084;28;20066;-61
2022/07/30 02:07:23;;;;;;;2.75;2.10;;;17.20;90.90;;;;;;5071070;28;20028;-61
2022/07/30 02:09:54;;;;;;;2.78;2.13;;;17.20;91.00;;;;;;5071043;28;20055;-61
2022/07/30 02:12:29;;;;;;;2.22;1.83;;;17.20;91.20;;;;;;5072628;28;21579;-62
2022/07/30 02:15:26;;;;;;;2.63;1.55;;;17.10;91.20;;;;;;5069830;28;20415;-61
2022/07/30 02:18:02;;;;;;;2.17;1.50;;;17.10;91.30;;;;;;5070490;28;20488;-61
2022/07/30 02:20:30;;;;;;;3.13;0.95;;;17.00;91.40;;;;;;5070634;28;20020;-62
2022/07/30 02:23:03;;;;;;;1.10;1.00;;;16.90;91.60;;;;;;5069559;28;20021;-61
2022/07/30 02:25:32;;;;;;;1.85;1.35;;;16.90;92.00;;;;;;5057604;28;20048;-61
2022/07/30 02:28:03;;;;;;;2.92;1.17;;;16.80;91.90;;;;;;5067253;28;20063;-62
2022/07/30 02:30:31;;;;;;;1.65;1.45;;;16.80;92.00;;;;;;5067097;28;20103;-62
2022/07/30 02:33:07;;;;;;;3.15;2.10;;;16.80;92.10;;;;;;5070729;28;20020;-62
2022/07/30 02:35:33;;;;;;;2.45;1.77;;;16.80;92.10;;;;;;5070489;28;20024;-61
2022/07/30 02:38:00;;;;;;;4.57;3.13;;;16.90;92.20;;;;;;5068831;28;20385;-61
2022/07/30 02:40:26;;;;;;;3.38;2.20;;;16.90;92.30;;;;;;5081964;28;20016;-61
2022/07/30 02:42:52;;;;;;;6.20;2.50;;;16.90;92.40;;;;;;5070628;28;20154;-62
2022/07/30 02:45:20;;;;;;;3.85;2.45;;;16.90;92.40;;;;;;5067937;28;20537;-62
2022/07/30 02:47:49;;;;;;;5.63;2.28;;;16.90;92.50;;;;;;5062508;28;20025;-62
2022/07/30 02:50:16;;;;;;;3.13;2.80;;;16.90;92.60;;;;;;5071806;28;20036;-62
2022/07/30 02:52:43;;;;;;;6.25;2.47;;;16.80;92.60;;;;;;5072650;28;20028;-61
2022/07/30 02:55:11;;;;;;;2.72;2.17;;;16.80;92.70;;;;;;5069402;28;20016;-62
2022/07/30 02:57:40;;;;;;;3.17;2.40;;;16.80;92.80;;;;;;5069995;28;20043;-62
2022/07/30 03:00:06;;;;;;;4.75;2.92;;;16.80;93.00;;;;;;5068288;28;20397;-61
2022/07/30 03:02:33;;;;;;;7.22;2.72;;;16.80;93.10;;;;;;5069985;28;20028;-62
2022/07/30 03:05:01;;;;;;;2.83;2.10;;;16.70;93.20;;;;;;5066864;28;20063;-62
2022/07/30 03:07:28;;;;;;;4.18;2.22;;;16.70;93.30;;;;;;5083445;28;20032;-61
2022/07/30 03:09:55;;;;;;;4.05;2.55;;;16.70;93.40;;;;;;5070035;28;20472;-62
2022/07/30 03:12:22;;;;;;;5.15;2.75;;;16.70;93.50;;;;;;5066935;28;20051;-61
2022/07/30 03:14:48;;;;;;;4.00;2.92;;;16.70;93.60;;;;;;5070369;28;20017;-61
2022/07/30 03:17:16;;;;;;;4.32;2.80;;;16.60;93.60;;;;;;5067635;28;20476;-61
2022/07/30 03:19:43;;;;;;;3.83;2.72;;;16.60;93.70;;;;;;5068410;28;20036;-61
2022/07/30 03:22:09;;;;;;;3.28;2.60;;;16.50;93.80;;;;;;5068545;28;20013;-61
2022/07/30 03:24:38;;;;;;;4.40;2.22;;;16.50;93.90;;;;;;5069659;28;20062;-61
2022/07/30 03:27:05;;;;;;;3.58;2.20;;;16.50;93.90;;;;;;5070808;28;20119;-62
2022/07/30 03:29:31;;;;;;;4.78;1.90;;;16.50;94.00;;;;;;5067775;28;20025;-61
2022/07/30 03:31:58;;;;;;;8.60;3.08;;;16.40;94.00;;;;;;5070102;28;20044;-61
2022/07/30 03:34:25;;;;;;;4.57;2.25;;;16.40;94.10;;;;;;5084731;28;20070;-61
2022/07/30 03:36:52;;;;;;;3.90;2.35;;;16.30;94.20;;;;;;5067401;28;20017;-61
2022/07/30 03:39:19;;;;;;;3.45;2.45;;;16.30;94.30;;;;;;5067288;28;20380;-61
2022/07/30 03:41:46;;;;;;;6.45;2.67;;;16.30;94.30;;;;;;5070153;28;20100;-61
2022/07/30 03:44:12;;;;;;;3.28;2.60;;;16.30;94.40;;;;;;5069766;28;20024;-61
2022/07/30 03:46:40;;;;;;;2.78;1.88;;;16.30;94.40;;;;;;5067483;28;20062;-61
2022/07/30 03:49:07;;;;;;;1.70;1.35;;;16.20;94.40;;;;;;5068085;28;20013;-62
2022/07/30 03:51:35;;;;;;;1.48;1.25;;;16.20;94.50;;;;;;5073211;28;20029;-61
2022/07/30 03:54:02;;;;;;;2.55;1.38;;;16.10;94.60;;;;;;5073381;28;20028;-61
2022/07/30 03:56:27;;;;;;;5.28;2.55;;;16.10;94.60;;;;;;5073228;28;20050;-61
2022/07/30 03:58:53;;;;;;;3.08;2.05;;;16.10;94.60;;;;;;5072652;28;20021;-61
2022/07/30 04:01:22;;;;;;;3.92;2.70;;;16.10;94.60;;;;;;5072357;28;20037;-61
2022/07/30 04:03:48;;;;;;;4.72;2.75;;;16.10;94.70;;;;;;5069278;28;20070;-62
2022/07/30 04:06:13;;;;;;;4.30;2.83;;;16.00;94.70;;;;;;5071514;28;20028;-62
2022/07/30 04:08:39;;;;;;;4.38;3.17;;;16.00;94.70;;;;;;5073883;28;20017;-61
2022/07/30 04:11:04;;;;;;;4.03;3.20;;;16.00;95.10;;;;;;5072945;28;20024;-61
2022/07/30 04:13:30;;;;;;;3.75;3.05;;;16.00;94.80;;;;;;5071632;28;20021;-61
2022/07/30 04:16:09;;;;;;;4.63;2.63;;;16.00;94.90;;;;;;5084751;28;20012;-61
2022/07/30 04:18:43;;;;;;;5.40;3.20;;;16.00;94.90;;;;;;5071597;28;20454;-61
2022/07/30 04:21:16;;;;;;;5.20;3.50;;;16.00;95.00;;;;;;5072012;28;20452;-61
2022/07/30 04:23:43;;;;;;;4.70;3.65;;;16.00;95.00;;;;;;5072165;28;20470;-61
2022/07/30 04:26:10;;;;;;;6.85;3.38;;;16.00;95.00;;;;;;5073248;28;20020;-61
2022/07/30 04:28:36;;;;;;;3.75;3.28;;;16.00;95.10;;;;;;5074184;28;20031;-61
2022/07/30 04:31:03;;;;;;;6.68;3.60;;;16.00;95.20;;;;;;5072302;28;20020;-61
2022/07/30 04:33:29;;;;;;;4.30;3.10;;;16.00;95.20;;;;;;5072323;28;20408;-61
2022/07/30 04:35:55;;;;;;;4.38;3.15;;;16.00;95.30;;;;;;5069949;28;20027;-61
2022/07/30 04:38:21;;;;;;;4.80;3.30;;;16.00;95.30;;;;;;5073628;28;20020;-61
2022/07/30 04:40:47;;;;;;;3.55;2.75;;;16.00;95.40;;;;;;5069628;28;20322;-61
2022/07/30 04:43:13;;;;;;;5.28;3.40;;;16.00;95.50;;;;;;5070754;28;20099;-61
2022/07/30 04:45:43;;;;;;;4.22;3.30;;;16.00;95.60;;;;;;5088534;28;20104;-61
2022/07/30 04:48:09;;;;;;;5.28;3.90;;;16.00;95.60;;;;;;5070654;28;20033;-61
2022/07/30 04:50:39;;;;;;;5.25;3.60;;;16.00;95.70;;;;;;5072772;28;20032;-61
2022/07/30 04:53:05;;;;;;;8.07;3.63;;;16.00;95.80;;;;;;5069271;28;20013;-61
2022/07/30 04:55:32;;;;;;;6.07;4.10;;;16.00;95.80;;;;;;5072103;28;20028;-61
2022/07/30 04:57:59;;;;;;;5.32;3.92;;;16.00;95.80;;;;;;5071642;28;20028;-61
2022/07/30 05:00:26;;;;;;;6.25;3.97;;;16.10;95.80;;;;;;5057823;28;20476;-61
2022/07/30 05:02:53;;;;;;;5.60;4.22;;;16.10;95.90;;;;;;5071385;28;20029;-61
2022/07/30 05:05:19;;;;;;;6.13;4.10;;;16.10;95.90;;;;;;5085913;28;20023;-61
2022/07/30 05:07:45;;;;;;;5.28;4.35;;;16.10;95.90;;;;;;5070550;28;20066;-61
2022/07/30 05:10:12;;;;;;;7.35;4.50;;;16.10;96.00;;;;;;5072253;28;20028;-61
2022/07/30 05:12:38;;;;;;;5.13;4.53;;;16.10;95.90;;;;;;5070238;28;20251;-61
2022/07/30 05:15:06;;;;;;;8.70;4.85;;;16.20;95.90;;;;;;5070439;28;20472;-61
2022/07/30 05:17:32;;;;;;;5.70;4.50;;;16.20;95.90;;;;;;5071951;28;20020;-61
2022/07/30 05:19:57;;;;;;;6.35;5.05;;;16.20;96.00;;;;;;5072412;28;20063;-61
2022/07/30 05:22:26;;;;;;;6.18;4.40;;;16.20;96.00;;;;;;5071297;28;20055;-61
2022/07/30 05:24:52;;;;;;;8.57;5.03;;;16.30;96.10;;;;;;5071736;28;20049;-61
2022/07/30 05:27:19;;;;;;;6.20;5.35;;;16.30;96.10;;;;;;5072142;28;20108;-61
2022/07/30 05:29:45;;;;;;;9.00;5.50;;;16.30;96.20;;;;;;5071847;28;20028;-61
2022/07/30 05:32:10;;;;;;;6.68;5.57;;;16.30;96.20;;;;;;5069478;28;20029;-61
2022/07/30 05:34:36;;;;;;;7.63;5.88;;;16.30;96.30;;;;;;5071667;28;20122;-62
2022/07/30 05:37:01;;;;;;;8.30;6.85;;;16.30;96.30;;;;;;5070786;28;20086;-61
2022/07/30 05:39:27;;;;;;;8.32;5.93;;;16.40;96.50;;;;;;5064770;28;20025;-61
2022/07/30 05:41:53;;;;;;;8.00;6.90;;;16.40;96.60;;;;;;5061220;28;20438;-61
2022/07/30 05:44:19;;;;;;;8.25;7.45;;;16.40;96.60;;;;;;5081600;28;20028;-61
2022/07/30 05:46:45;;;;;;;12.82;8.10;;;16.40;96.80;;;;;;5069096;28;20025;-61
2022/07/30 05:49:10;;;;;;;9.93;7.55;;;16.50;96.90;;;;;;5070316;28;20028;-61
2022/07/30 05:51:36;;;;;;;7.55;6.82;;;16.50;97.00;;;;;;5071630;28;20399;-62
2022/07/30 05:54:02;;;;;;;10.05;7.55;;;16.50;97.00;;;;;;5072537;28;20028;-61
2022/07/30 05:56:27;;;;;;;8.77;7.75;;;16.60;97.10;;;;;;5067577;28;20021;-61
2022/07/30 05:59:11;;;;;;;10.65;8.27;;;16.60;97.20;;;;;;5060801;28;20486;-61
2022/07/30 06:01:36;;;;;;;11.43;7.00;;;16.70;97.30;;;;;;5065869;28;20064;-61
2022/07/30 06:04:02;;;;;;;12.43;8.27;;;16.70;97.30;;;;;;5064854;28;20032;-61
2022/07/30 06:06:27;;;;;;;9.90;7.75;;;16.70;97.40;;;;;;5065048;28;20028;-61
2022/07/30 06:08:53;;;;;;;10.00;7.50;;;16.80;97.50;;;;;;5064541;28;20021;-62
2022/07/30 06:11:18;;;;;;;10.00;8.73;;;16.80;97.50;;;;;;5064444;28;20488;-61
2022/07/30 06:13:44;;;;;;;9.55;8.18;;;16.90;97.60;;;;;;5082690;28;20051;-61
2022/07/30 06:16:09;;;;;;;9.93;7.15;;;16.90;97.70;;;;;;5067059;28;20021;-61
2022/07/30 06:18:35;;;;;;;9.52;7.63;;;16.90;97.70;;;;;;5070505;28;20055;-61
2022/07/30 06:21:00;;;;;;;11.23;7.55;;;16.90;97.70;;;;;;5058897;28;20077;-61
2022/07/30 06:23:26;;;;;;;10.82;7.93;;;17.00;97.80;;;;;;5069502;28;20046;-61
2022/07/30 06:25:52;;;;;;;12.07;7.50;;;17.00;97.80;;;;;;5070935;28;20028;-61
2022/07/30 06:28:18;;;;;;;8.40;7.60;;;17.10;97.90;;;;;;5060753;28;20030;-61
2022/07/30 06:30:44;;;;;;;11.00;7.18;;;17.10;97.90;;;;;;5056149;28;20036;-61
2022/07/30 06:33:10;;;;;;;8.90;6.95;;;17.20;98.00;;;;;;5054807;28;20069;-61
2022/07/30 06:35:36;;;;;;;9.38;5.57;;;17.20;98.00;;;;;;5052011;28;20025;-61
2022/07/30 06:38:02;;;;;;;9.40;7.63;;;17.20;97.90;;;;;;5054545;28;20039;-61
2022/07/30 06:40:27;;;;;;;8.02;7.22;;;17.30;98.00;;;;;;5055699;28;20017;-61
2022/07/30 06:42:53;;;;;;;8.60;6.55;;;17.30;98.00;;;;;;5065118;28;20105;-61
2022/07/30 06:45:18;;;;;;;10.00;6.22;;;17.30;97.90;;;;;;5055715;28;20025;-61
2022/07/30 06:47:49;;;;;;;7.70;5.65;;;17.40;97.90;;;;;;5064056;28;20357;-61
2022/07/30 06:50:17;;;;;;;10.63;6.32;;;17.50;97.80;;;;;;5053931;28;20025;-61
2022/07/30 06:52:43;;;;;;;10.77;6.63;;;17.50;97.80;;;;;;5056975;28;20023;-61
2022/07/30 06:55:08;;;;;;;7.32;6.63;;;17.60;97.70;;;;;;5066956;28;20021;-61
2022/07/30 06:57:34;;;;;;;8.30;6.10;;;17.70;97.70;;;;;;5051420;28;20484;-61
2022/07/30 06:59:59;;;;;;;8.88;6.13;;;17.80;97.80;;;;;;5069001;28;20461;-61
2022/07/30 07:02:25;;;;;;;7.25;5.95;;;17.90;97.40;;;;;;5069349;28;20048;-61
2022/07/30 07:05:16;;;;;;;;;;;;;;;;;;;;;
2022/07/30 07:08:11;;;;;;;6.65;5.95;;;18.10;97.30;;;;;;5065621;28;20021;-61
2022/07/30 07:10:37;;;;;;;6.78;6.05;;;18.20;97.10;;;;;;5070624;28;20025;-61
2022/07/30 07:13:02;;;;;;;6.60;4.13;;;18.30;97.00;;;;;;5070413;28;20038;-61
2022/07/30 07:15:28;;;;;;;3.40;3.08;;;18.50;96.80;;;;;;5070760;28;20082;-61
2022/07/30 07:17:54;;;;;;;3.47;2.50;;;18.60;96.50;;;;;;5055062;28;20354;-60
2022/07/30 07:20:19;;;;;;;5.15;2.42;;;18.70;96.20;;;;;;5053447;28;20025;-61
2022/07/30 07:22:45;;;;;;;6.63;2.30;;;18.80;95.70;;;;;;5072392;28;20020;-61
2022/07/30 07:25:10;;;;;;;6.38;2.38;;;18.90;95.30;;;;;;5061598;28;20029;-61
2022/07/30 07:27:36;;;;;;;5.25;2.30;;;18.90;95.00;;;;;;5052776;28;20017;-61
2022/07/30 07:30:03;;;;;;;4.00;2.00;;;19.00;94.80;;;;;;5053351;28;20516;-61
2022/07/30 07:32:29;;;;;;;2.95;2.08;;;19.00;94.50;;;;;;5071271;28;20040;-61
2022/07/30 07:34:54;;;;;;;6.93;2.30;;;19.20;94.30;;;;;;5067471;28;20388;-61
2022/07/30 07:37:20;;;;;;;2.95;1.67;;;19.30;94.00;;;;;;5066315;28;20111;-61
2022/07/30 07:39:45;;;;;;;4.03;2.10;;;19.30;93.90;;;;;;5050914;28;20032;-61
2022/07/30 07:42:11;;;;;;;4.40;1.92;;;19.40;93.80;;;;;;5054359;28;20036;-62
2022/07/30 07:44:36;;;;;;;4.78;2.55;;;19.40;93.50;;;;;;5064596;28;20020;-61
2022/07/30 07:47:02;;;;;;;4.38;2.28;;;19.40;93.30;;;;;;5060768;28;20480;-61
2022/07/30 07:49:27;;;;;;;3.55;2.15;;;19.50;92.90;;;;;;5066138;28;20031;-61
2022/07/30 07:51:53;;;;;;;4.00;2.28;;;19.50;92.60;;;;;;5060618;28;20061;-61
2022/07/30 07:54:19;;;;;;;4.20;2.08;;;19.60;92.50;;;;;;5066912;28;20503;-61
2022/07/30 07:56:44;;;;;;;5.68;3.03;;;19.70;92.30;;;;;;5054630;28;20025;-61
2022/07/30 07:59:10;;;;;;;3.95;1.65;;;19.80;91.80;;;;;;5061805;28;20120;-61
2022/07/30 08:01:36;;;;;;;5.90;1.65;;;19.80;91.70;;;;;;5066230;28;20169;-61
2022/07/30 08:04:01;;;;;;;4.82;2.53;;;19.90;91.50;;;;;;5069753;28;20383;-61
2022/07/30 08:06:35;;;;;;;5.38;2.83;;;19.90;91.30;;;;;;5067340;28;20477;-61
2022/07/30 08:09:01;;;;;;;4.63;2.58;;;20.00;91.10;;;;;;5059525;28;20158;-61
2022/07/30 08:11:27;;;;;;;5.78;2.75;;;20.00;90.90;;;;;;5064693;28;20088;-61
2022/07/30 08:13:52;;;;;;;3.85;1.83;;;20.10;90.80;;;;;;5058179;28;20025;-61
2022/07/30 08:16:18;;;;;;;2.80;1.73;;;20.20;90.70;;;;;;5078936;28;20075;-61
2022/07/30 08:18:44;;;;;;;2.65;1.90;;;20.30;90.30;;;;;;5073060;28;20012;-61
2022/07/30 08:21:09;;;;;;;4.85;2.45;;;20.30;90.00;;;;;;5059811;28;20476;-61
2022/07/30 08:23:35;;;;;;;3.70;2.08;;;20.40;89.60;;;;;;5074918;28;20028;-61
2022/07/30 08:26:00;;;;;;;2.67;1.88;;;20.40;88.80;;;;;;5066039;28;20033;-61
2022/07/30 08:28:29;;;;;;;4.88;2.50;;;20.50;88.50;;;;;;5064190;28;20070;-61
2022/07/30 08:30:54;;;;;;;4.28;2.65;;;20.50;87.60;;;;;;5058769;28;20029;-61
2022/07/30 08:33:20;;;;;;;2.13;1.83;;;20.50;87.10;;;;;;5058588;28;20029;-61
2022/07/30 08:35:45;;;;;;;4.45;1.90;;;20.60;87.00;;;;;;5055275;28;20472;-61
2022/07/30 08:38:14;;;;;;;3.83;1.70;;;20.70;86.30;;;;;;5061516;28;20017;-61
2022/07/30 08:40:40;;;;;;;3.03;1.93;;;20.70;85.10;;;;;;5066519;28;20258;-61
2022/07/30 08:43:06;;;;;;;2.58;2.20;;;20.70;84.50;;;;;;5064526;28;20504;-61
2022/07/30 08:45:33;;;;;;;4.82;2.28;;;20.70;84.00;;;;;;5074284;28;20024;-61
2022/07/30 08:48:00;;;;;;;3.08;2.40;;;20.70;83.80;;;;;;5070773;28;20024;-61
2022/07/30 08:50:27;;;;;;;4.40;2.25;;;20.80;83.70;;;;;;5070327;28;20017;-61
2022/07/30 08:52:54;;;;;;;3.83;2.13;;;20.90;83.70;;;;;;5082956;28;20472;-61
2022/07/30 08:55:21;;;;;;;4.25;3.00;;;21.00;83.60;;;;;;5082491;28;20025;-61
2022/07/30 08:57:50;;;;;;;4.20;2.22;;;21.10;83.10;;;;;;5094540;28;20127;-61
2022/07/30 09:00:17;;;;;;;5.97;2.70;;;21.10;82.80;;;;;;5087578;28;20132;-61
2022/07/30 09:02:43;;;;;;;7.35;2.85;;;21.20;82.60;;;;;;5076787;28;20024;-61
2022/07/30 09:05:34;;;;;;;2.67;2.33;;;21.20;82.10;;;;;;5072845;28;20481;-61
2022/07/30 09:07:59;;;;;;;5.28;2.10;;;21.30;81.70;;;;;;5063834;28;20040;-61
2022/07/30 09:10:25;;;;;;;4.22;2.65;;;21.40;81.30;;;;;;5080529;28;20029;-61
2022/07/30 09:12:51;;;;;;;4.45;2.20;;;21.40;80.40;;;;;;5065396;28;20116;-61
2022/07/30 09:15:19;;;;;;;3.03;1.63;;;21.40;80.10;;;;;;5053421;28;20139;-61
2022/07/30 09:17:56;;;;;;;3.92;2.38;;;21.50;80.00;;;;;;5059107;28;20056;-61
2022/07/30 09:20:25;;;;;;;3.38;2.03;;;21.60;79.80;;;;;;5065292;28;20020;-61
2022/07/30 09:23:01;;;;;;;2.43;2.10;;;21.60;79.90;;;;;;5070926;28;20041;-61
2022/07/30 09:25:41;;;;;;;3.90;1.90;;;21.70;79.60;;;;;;5070482;28;20266;-61
2022/07/30 09:28:13;;;;;;;4.55;2.38;;;21.70;79.30;;;;;;5058252;28;20025;-61
2022/07/30 09:30:50;;;;;;;3.63;1.65;;;21.70;79.00;;;;;;5054950;28;20067;-61
2022/07/30 09:33:42;;;;;;;2.97;1.92;;;21.70;79.10;;;;;;5057754;28;20040;-61
2022/07/30 09:36:10;;;;;;;4.20;2.33;;;21.80;78.10;;;;;;5063401;28;20025;-61
2022/07/30 09:38:46;;;;;;;4.55;2.28;;;21.80;77.80;;;;;;5055735;28;20028;-61
2022/07/30 09:41:13;;;;;;;2.97;2.00;;;21.80;77.00;;;;;;5060233;28;20340;-62
2022/07/30 09:43:47;;;;;;;3.83;2.00;;;21.80;77.00;;;;;;5073184;28;20419;-61
2022/07/30 09:46:13;;;;;;;4.45;1.95;;;21.80;76.10;;;;;;5065210;28;20381;-61
2022/07/30 09:48:39;;;;;;;2.20;1.23;;;21.90;76.30;;;;;;5071541;28;20038;-65
2022/07/30 09:51:05;;;;;;;1.98;1.33;;;22.00;76.30;;;;;;5060290;28;20100;-61
2022/07/30 09:53:31;;;;;;;4.78;2.08;;;22.00;76.00;;;;;;5060002;28;20021;-61
2022/07/30 09:55:58;;;;;;;3.50;1.60;;;22.10;75.40;;;;;;5058074;28;20104;-61
2022/07/30 09:58:38;;;;;;;2.00;1.13;;;22.20;75.30;;;;;;5062205;28;20503;-62
2022/07/30 10:01:03;;;;;;;2.80;1.40;;;22.20;75.20;;;;;;5069663;28;20098;-61
2022/07/30 10:03:29;;;;;;;3.08;1.42;;;22.20;74.90;;;;;;5068965;28;20051;-62
2022/07/30 10:05:57;;;;;;;3.25;1.00;;;22.30;74.60;;;;;;5059087;28;20408;-62
2022/07/30 10:08:42;;;;;;;3.13;1.20;;;22.30;74.50;;;;;;5062126;28;20025;-62
2022/07/30 10:11:13;;;;;;;3.38;1.52;;;22.40;74.00;;;;;;5065552;28;20388;-62
2022/07/30 10:13:40;;;;;;;1.90;0.90;;;22.50;73.70;;;;;;5063013;28;20083;-62
2022/07/30 10:16:29;;;;;;;2.05;0.80;;;22.50;73.50;;;;;;5056878;28;20029;-61
2022/07/30 10:18:56;;;;;;;2.42;1.10;;;22.60;73.40;;;;;;5059538;28;20385;-62
2022/07/30 10:21:22;;;;;;;3.55;1.05;;;22.60;73.20;;;;;;5057162;28;20493;-62
2022/07/30 10:23:50;;;;;;;2.40;1.02;;;22.70;72.90;;;;;;5059284;28;20051;-62
2022/07/30 10:26:16;;;;;;;2.78;1.35;;;22.80;73.70;;;;;;5063340;28;20048;-62
2022/07/30 10:28:43;;;;;;;2.58;1.05;;;22.80;72.70;;;;;;5060196;28;20520;-62
2022/07/30 10:31:21;;;;;;;2.78;1.10;;;22.90;72.90;;;;;;5055175;28;20035;-62
2022/07/30 10:33:46;;;;;;;3.15;1.13;;;23.00;72.40;;;;;;5068747;28;20020;-62
2022/07/30 10:36:12;;;;;;;2.60;1.45;;;23.10;72.50;;;;;;5059445;28;20029;-62
2022/07/30 10:38:41;;;;;;;2.55;1.30;;;23.10;72.10;;;;;;5059508;28;20031;-61
2022/07/30 10:41:23;;;;;;;2.28;1.10;;;23.20;71.80;;;;;;5068967;28;20479;-62
2022/07/30 10:44:12;;;;;;;2.42;0.90;;;23.30;71.60;;;;;;5074702;28;20044;-61
2022/07/30 10:46:40;;;;;;;1.35;0.63;;;23.50;70.70;;;;;;5084970;28;20042;-62
2022/07/30 10:49:14;;;;;;;3.75;1.40;;;23.50;70.40;;;;;;5072352;28;20032;-62
2022/07/30 10:51:49;;;;;;;4.03;1.45;;;23.70;69.50;;;;;;5070886;28;20485;-62
2022/07/30 10:54:33;;;;;;;2.47;1.10;;;23.80;69.40;;;;;;5065429;28;20434;-62
2022/07/30 10:57:19;;;;;;;2.08;0.77;;;24.00;68.80;;;;;;5054868;28;20025;-62
2022/07/30 10:59:59;;;;;;;1.20;0.50;;;24.10;68.50;;;;;;5068434;28;20464;-62
2022/07/30 11:02:30;;;;;;;2.00;0.85;;;24.20;68.20;;;;;;5081170;28;20039;-62
2022/07/30 11:05:20;;;;;;;1.75;0.75;;;24.40;67.30;;;;;;5071884;28;20109;-62
2022/07/30 11:07:46;;;;;;;1.35;0.68;;;24.50;66.40;;;;;;5082339;28;20035;-62
2022/07/30 11:10:36;;;;;;;1.98;0.80;;;24.60;65.90;;;;;;5062852;28;20029;-61
2022/07/30 11:13:03;;;;;;;1.73;0.80;;;24.70;65.20;;;;;;5056056;28;20028;-62
2022/07/30 11:15:57;;;;;;;2.25;1.13;;;24.80;64.10;;;;;;5058030;28;20017;-62
2022/07/30 11:18:25;;;;;;;1.30;0.55;;;25.00;64.00;;;;;;5065446;28;20028;-62
2022/07/30 11:21:17;;;;;;;2.42;0.63;;;25.10;63.70;;;;;;5055776;28;20035;-62
2022/07/30 11:23:44;;;;;;;2.85;0.80;;;25.30;63.80;;;;;;5057722;28;20048;-62
2022/07/30 11:26:10;;;;;;;1.50;0.60;;;25.40;63.40;;;;;;5055435;28;20017;-62
2022/07/30 11:28:39;;;;;;;1.80;0.70;;;25.60;63.00;;;;;;5067671;28;20028;-62
2022/07/30 11:31:34;;;;;;;1.48;0.70;;;25.80;62.80;;;;;;5068589;28;20051;-62
2022/07/30 11:34:18;;;;;;;0.80;0.60;;;26.00;61.90;;;;;;5078472;28;20032;-62
2022/07/30 11:37:02;;;;;;;1.33;0.52;;;26.20;61.80;;;;;;5067623;28;20028;-62
2022/07/30 11:39:53;;;;;;;2.55;0.90;;;26.40;61.40;;;;;;5071195;28;20052;-62
2022/07/30 11:42:38;;;;;;;2.08;0.70;;;26.50;60.60;;;;;;5074965;28;20481;-62
2022/07/30 11:45:19;;;;;;;1.52;0.60;;;26.60;60.10;;;;;;5058047;28;20041;-62
2022/07/30 11:48:21;;;;;;;;;;;;;;;;;;;;;
2022/07/30 11:50:48;;;;;;;2.03;0.60;;;26.90;58.70;;;;;;5050469;28;20047;-62
2022/07/30 11:53:16;;;;;;;3.05;0.80;;;27.00;58.60;;;;;;5064445;28;20104;-62
2022/07/30 11:55:46;;;;;;;1.75;0.70;;;27.20;58.00;;;;;;5062976;28;20056;-62
2022/07/30 11:58:38;;;;;;;2.10;0.80;;;27.30;58.00;;;;;;5070528;28;20028;-63
2022/07/30 12:01:06;;;;;;;2.97;0.80;;;27.40;57.30;;;;;;5061564;28;20099;-62
2022/07/30 12:03:31;;;;;;;2.80;0.50;;;27.60;57.10;;;;;;5067535;28;20059;-62
2022/07/30 12:06:05;;;;;;;1.90;0.90;;;27.70;57.30;;;;;;5069206;28;20045;-62
2022/07/30 12:08:41;;;;;;;3.58;0.80;;;27.90;57.30;;;;;;5078942;28;20025;-62
2022/07/30 12:11:30;;;;;;;2.10;0.60;;;28.10;56.50;;;;;;5052557;28;20126;-63
2022/07/30 12:14:07;;;;;;;2.38;0.60;;;28.20;56.50;;;;;;5061094;28;20107;-62
2022/07/30 12:16:33;;;;;;;2.65;0.70;;;28.30;56.10;;;;;;5066164;28;20025;-62
2022/07/30 12:19:05;;;;;;;1.23;0.60;;;28.50;55.50;;;;;;5074920;28;20388;-62
2022/07/30 12:21:31;;;;;;;2.38;1.00;;;28.80;55.10;;;;;;5063711;28;20032;-63
2022/07/30 12:24:00;;;;;;;4.03;0.50;;;29.00;54.90;;;;;;5059999;28;20127;-63
2022/07/30 12:26:28;;;;;;;2.03;0.60;;;29.30;54.80;;;;;;5074642;28;20032;-63
2022/07/30 12:29:02;;;;;;;1.30;0.60;;;29.70;54.20;;;;;;5070980;28;20079;-63
2022/07/30 12:31:28;;;;;;;1.85;0.50;;;29.90;53.10;;;;;;5073717;28;20108;-62
2022/07/30 12:33:56;;;;;;;1.35;0.68;;;30.00;52.90;;;;;;5070284;28;20112;-63
2022/07/30 12:36:26;;;;;;;2.15;0.70;;;30.00;52.10;;;;;;5073796;28;20021;-62
2022/07/30 12:38:53;;;;;;;1.65;0.63;;;30.00;51.90;;;;;;5071889;28;20483;-63
2022/07/30 12:41:41;;;;;;;1.85;0.68;;;30.00;52.10;;;;;;5075516;28;20373;-63
2022/07/30 12:44:07;;;;;;;2.80;1.33;;;30.00;51.40;;;;;;5062797;28;20025;-63
2022/07/30 12:46:39;;;;;;;2.15;0.80;;;30.00;51.40;;;;;;5071004;28;20045;-63
2022/07/30 12:49:06;;;;;;;1.98;0.70;;;30.10;51.00;;;;;;5073422;28;20032;-63
2022/07/30 12:51:34;;;;;;;2.17;0.63;;;30.10;51.10;;;;;;5072923;28;20033;-63
2022/07/30 12:54:13;;;;;;;2.10;0.60;;;30.20;51.00;;;;;;5065026;28;20024;-63
2022/07/30 12:56:40;;;;;;;2.00;0.60;;;30.30;50.70;;;;;;5059965;28;20107;-63
2022/07/30 12:59:20;;;;;;;1.40;0.60;;;30.40;50.80;;;;;;5074851;28;20023;-63
2022/07/30 13:01:48;;;;;;;1.95;0.60;;;30.60;50.80;;;;;;5054853;28;20451;-63